sensor_id;sensor_type;location;lat;lon;timestamp;P1;durP1;ratioP1;P2;durP2;ratioP2
74656;SDS011;63185;45.642;13.764;2023-04-15T00:00:14;8.25;;;2.90;;
74656;SDS011;63185;45.642;13.764;2023-04-15T00:02:40;4.85;;;2.90;;
74656;SDS011;63185;45.642;13.764;2023-04-15T00:05:06;5.32;;;3.30;;
74656;SDS011;63185;45.642;13.764;2023-04-15T00:07:32;6.25;;;2.97;;
74656;SDS011;63185;45.642;13.764;2023-04-15T00:09:58;8.10;;;3.25;;
74656;SDS011;63185;45.642;13.764;2023-04-15T00:12:27;7.35;;;3.53;;
74656;SDS011;63185;45.642;13.764;2023-04-15T00:14:52;7.43;;;3.30;;
74656;SDS011;63185;45.642;13.764;2023-04-15T00:17:18;6.30;;;3.60;;
74656;SDS011;63185;45.642;13.764;2023-04-15T00:19:45;5.88;;;3.40;;
74656;SDS011;63185;45.642;13.764;2023-04-15T00:22:11;7.47;;;3.35;;
74656;SDS011;63185;45.642;13.764;2023-04-15T00:24:37;5.75;;;2.90;;
74656;SDS011;63185;45.642;13.764;2023-04-15T00:27:03;7.13;;;3.30;;
74656;SDS011;63185;45.642;13.764;2023-04-15T00:29:30;6.95;;;3.22;;
74656;SDS011;63185;45.642;13.764;2023-04-15T00:31:55;7.18;;;3.63;;
74656;SDS011;63185;45.642;13.764;2023-04-15T00:34:22;5.95;;;3.22;;
74656;SDS011;63185;45.642;13.764;2023-04-15T00:36:48;9.82;;;3.28;;
74656;SDS011;63185;45.642;13.764;2023-04-15T00:39:15;8.93;;;3.60;;
74656;SDS011;63185;45.642;13.764;2023-04-15T00:41:41;9.07;;;3.67;;
74656;SDS011;63185;45.642;13.764;2023-04-15T00:44:07;7.18;;;4.45;;
74656;SDS011;63185;45.642;13.764;2023-04-15T00:46:37;9.25;;;4.28;;
74656;SDS011;63185;45.642;13.764;2023-04-15T00:49:04;5.07;;;3.38;;
74656;SDS011;63185;45.642;13.764;2023-04-15T00:51:31;7.10;;;3.22;;
74656;SDS011;63185;45.642;13.764;2023-04-15T00:54:00;4.18;;;2.90;;
74656;SDS011;63185;45.642;13.764;2023-04-15T00:56:30;4.65;;;2.80;;
74656;SDS011;63185;45.642;13.764;2023-04-15T00:59:03;4.05;;;2.45;;
74656;SDS011;63185;45.642;13.764;2023-04-15T01:01:30;6.13;;;2.70;;
74656;SDS011;63185;45.642;13.764;2023-04-15T01:03:57;4.38;;;2.42;;
74656;SDS011;63185;45.642;13.764;2023-04-15T01:06:23;4.93;;;2.47;;
74656;SDS011;63185;45.642;13.764;2023-04-15T01:08:49;4.72;;;2.53;;
74656;SDS011;63185;45.642;13.764;2023-04-15T01:11:16;5.75;;;2.38;;
74656;SDS011;63185;45.642;13.764;2023-04-15T01:13:43;4.40;;;2.40;;
74656;SDS011;63185;45.642;13.764;2023-04-15T01:16:09;5.40;;;2.35;;
74656;SDS011;63185;45.642;13.764;2023-04-15T01:18:36;5.85;;;2.50;;
74656;SDS011;63185;45.642;13.764;2023-04-15T01:21:01;4.88;;;2.13;;
74656;SDS011;63185;45.642;13.764;2023-04-15T01:23:30;3.53;;;2.05;;
74656;SDS011;63185;45.642;13.764;2023-04-15T01:25:56;3.88;;;2.20;;
74656;SDS011;63185;45.642;13.764;2023-04-15T01:28:23;3.92;;;2.10;;
74656;SDS011;63185;45.642;13.764;2023-04-15T01:30:50;3.85;;;2.00;;
74656;SDS011;63185;45.642;13.764;2023-04-15T01:33:29;3.25;;;1.73;;
74656;SDS011;63185;45.642;13.764;2023-04-15T01:35:55;3.55;;;2.00;;
74656;SDS011;63185;45.642;13.764;2023-04-15T01:38:21;3.78;;;1.80;;
74656;SDS011;63185;45.642;13.764;2023-04-15T01:40:47;3.40;;;1.80;;
74656;SDS011;63185;45.642;13.764;2023-04-15T01:43:12;2.50;;;1.50;;
74656;SDS011;63185;45.642;13.764;2023-04-15T01:45:39;5.90;;;2.10;;
74656;SDS011;63185;45.642;13.764;2023-04-15T01:48:05;4.50;;;2.00;;
74656;SDS011;63185;45.642;13.764;2023-04-15T01:50:31;3.70;;;2.20;;
74656;SDS011;63185;45.642;13.764;2023-04-15T01:52:57;4.50;;;2.08;;
74656;SDS011;63185;45.642;13.764;2023-04-15T01:55:22;4.57;;;2.03;;
74656;SDS011;63185;45.642;13.764;2023-04-15T01:57:48;4.47;;;2.28;;
74656;SDS011;63185;45.642;13.764;2023-04-15T02:00:14;4.75;;;1.90;;
74656;SDS011;63185;45.642;13.764;2023-04-15T02:02:40;5.15;;;2.28;;
74656;SDS011;63185;45.642;13.764;2023-04-15T02:05:06;5.03;;;2.08;;
74656;SDS011;63185;45.642;13.764;2023-04-15T02:07:32;4.85;;;1.75;;
74656;SDS011;63185;45.642;13.764;2023-04-15T02:09:57;5.35;;;1.75;;
74656;SDS011;63185;45.642;13.764;2023-04-15T02:12:23;4.70;;;1.92;;
74656;SDS011;63185;45.642;13.764;2023-04-15T02:14:49;3.88;;;1.73;;
74656;SDS011;63185;45.642;13.764;2023-04-15T02:17:15;4.68;;;1.90;;
74656;SDS011;63185;45.642;13.764;2023-04-15T02:19:41;3.78;;;1.85;;
74656;SDS011;63185;45.642;13.764;2023-04-15T02:22:07;3.22;;;1.60;;
74656;SDS011;63185;45.642;13.764;2023-04-15T02:24:33;2.40;;;1.50;;
74656;SDS011;63185;45.642;13.764;2023-04-15T02:26:59;3.17;;;1.80;;
74656;SDS011;63185;45.642;13.764;2023-04-15T02:29:25;3.63;;;1.48;;
74656;SDS011;63185;45.642;13.764;2023-04-15T02:31:51;5.07;;;1.58;;
74656;SDS011;63185;45.642;13.764;2023-04-15T02:34:17;3.75;;;1.30;;
74656;SDS011;63185;45.642;13.764;2023-04-15T02:36:43;7.35;;;1.50;;
74656;SDS011;63185;45.642;13.764;2023-04-15T02:39:08;2.35;;;1.10;;
74656;SDS011;63185;45.642;13.764;2023-04-15T02:41:35;4.75;;;1.20;;
74656;SDS011;63185;45.642;13.764;2023-04-15T02:44:00;4.47;;;1.30;;
74656;SDS011;63185;45.642;13.764;2023-04-15T02:46:26;3.33;;;1.10;;
74656;SDS011;63185;45.642;13.764;2023-04-15T02:48:52;5.78;;;1.13;;
74656;SDS011;63185;45.642;13.764;2023-04-15T02:51:18;2.80;;;0.90;;
74656;SDS011;63185;45.642;13.764;2023-04-15T02:53:46;3.92;;;1.50;;
74656;SDS011;63185;45.642;13.764;2023-04-15T02:56:12;2.53;;;1.10;;
74656;SDS011;63185;45.642;13.764;2023-04-15T02:58:39;2.45;;;0.95;;
74656;SDS011;63185;45.642;13.764;2023-04-15T03:01:05;3.15;;;1.15;;
74656;SDS011;63185;45.642;13.764;2023-04-15T03:03:33;3.38;;;1.15;;
74656;SDS011;63185;45.642;13.764;2023-04-15T03:05:58;2.00;;;1.15;;
74656;SDS011;63185;45.642;13.764;2023-04-15T03:08:24;3.20;;;1.23;;
74656;SDS011;63185;45.642;13.764;2023-04-15T03:10:50;5.00;;;1.45;;
74656;SDS011;63185;45.642;13.764;2023-04-15T03:13:17;5.30;;;1.30;;
74656;SDS011;63185;45.642;13.764;2023-04-15T03:15:45;3.20;;;1.23;;
74656;SDS011;63185;45.642;13.764;2023-04-15T03:18:11;4.63;;;1.38;;
74656;SDS011;63185;45.642;13.764;2023-04-15T03:20:36;3.95;;;1.27;;
74656;SDS011;63185;45.642;13.764;2023-04-15T03:23:02;3.55;;;1.48;;
74656;SDS011;63185;45.642;13.764;2023-04-15T03:25:28;3.35;;;1.20;;
74656;SDS011;63185;45.642;13.764;2023-04-15T03:27:53;1.58;;;0.93;;
74656;SDS011;63185;45.642;13.764;2023-04-15T03:30:19;4.57;;;1.30;;
74656;SDS011;63185;45.642;13.764;2023-04-15T03:32:45;3.88;;;1.20;;
74656;SDS011;63185;45.642;13.764;2023-04-15T03:35:11;4.95;;;1.52;;
74656;SDS011;63185;45.642;13.764;2023-04-15T03:37:37;3.55;;;1.20;;
74656;SDS011;63185;45.642;13.764;2023-04-15T03:40:02;3.72;;;1.05;;
74656;SDS011;63185;45.642;13.764;2023-04-15T03:42:28;1.50;;;0.90;;
74656;SDS011;63185;45.642;13.764;2023-04-15T03:44:54;2.58;;;1.13;;
74656;SDS011;63185;45.642;13.764;2023-04-15T03:47:20;2.63;;;1.05;;
74656;SDS011;63185;45.642;13.764;2023-04-15T03:49:45;3.65;;;1.10;;
74656;SDS011;63185;45.642;13.764;2023-04-15T03:52:11;2.85;;;1.02;;
74656;SDS011;63185;45.642;13.764;2023-04-15T03:54:37;2.10;;;1.08;;
74656;SDS011;63185;45.642;13.764;2023-04-15T03:57:02;3.33;;;1.10;;
74656;SDS011;63185;45.642;13.764;2023-04-15T03:59:28;4.82;;;1.20;;
74656;SDS011;63185;45.642;13.764;2023-04-15T04:01:54;2.35;;;0.90;;
74656;SDS011;63185;45.642;13.764;2023-04-15T04:04:20;2.83;;;1.15;;
74656;SDS011;63185;45.642;13.764;2023-04-15T04:06:46;4.72;;;1.58;;
74656;SDS011;63185;45.642;13.764;2023-04-15T04:09:12;2.25;;;1.15;;
74656;SDS011;63185;45.642;13.764;2023-04-15T04:11:37;2.58;;;0.95;;
74656;SDS011;63185;45.642;13.764;2023-04-15T04:14:03;7.07;;;1.50;;
74656;SDS011;63185;45.642;13.764;2023-04-15T04:16:29;2.47;;;0.90;;
74656;SDS011;63185;45.642;13.764;2023-04-15T04:18:54;3.92;;;1.00;;
74656;SDS011;63185;45.642;13.764;2023-04-15T04:21:20;2.67;;;0.90;;
74656;SDS011;63185;45.642;13.764;2023-04-15T04:23:46;3.35;;;0.75;;
74656;SDS011;63185;45.642;13.764;2023-04-15T04:26:12;4.85;;;0.77;;
74656;SDS011;63185;45.642;13.764;2023-04-15T04:28:37;2.70;;;0.82;;
74656;SDS011;63185;45.642;13.764;2023-04-15T04:31:06;5.45;;;0.82;;
74656;SDS011;63185;45.642;13.764;2023-04-15T04:33:32;2.50;;;0.70;;
74656;SDS011;63185;45.642;13.764;2023-04-15T04:35:58;1.45;;;0.80;;
74656;SDS011;63185;45.642;13.764;2023-04-15T04:38:24;3.72;;;1.48;;
74656;SDS011;63185;45.642;13.764;2023-04-15T04:40:49;4.57;;;0.80;;
74656;SDS011;63185;45.642;13.764;2023-04-15T04:43:15;9.98;;;1.80;;
74656;SDS011;63185;45.642;13.764;2023-04-15T04:45:41;2.78;;;0.73;;
74656;SDS011;63185;45.642;13.764;2023-04-15T04:48:07;2.78;;;0.90;;
74656;SDS011;63185;45.642;13.764;2023-04-15T04:50:34;2.13;;;0.90;;
74656;SDS011;63185;45.642;13.764;2023-04-15T04:53:00;3.28;;;0.90;;
74656;SDS011;63185;45.642;13.764;2023-04-15T04:55:26;3.58;;;0.75;;
74656;SDS011;63185;45.642;13.764;2023-04-15T04:57:53;2.15;;;0.88;;
74656;SDS011;63185;45.642;13.764;2023-04-15T05:00:18;3.85;;;1.05;;
74656;SDS011;63185;45.642;13.764;2023-04-15T05:02:44;7.78;;;1.08;;
74656;SDS011;63185;45.642;13.764;2023-04-15T05:05:10;3.88;;;0.88;;
74656;SDS011;63185;45.642;13.764;2023-04-15T05:07:37;2.00;;;0.90;;
74656;SDS011;63185;45.642;13.764;2023-04-15T05:10:03;2.78;;;0.82;;
74656;SDS011;63185;45.642;13.764;2023-04-15T05:12:30;1.77;;;0.70;;
74656;SDS011;63185;45.642;13.764;2023-04-15T05:14:56;5.20;;;0.90;;
74656;SDS011;63185;45.642;13.764;2023-04-15T05:17:22;4.65;;;1.00;;
74656;SDS011;63185;45.642;13.764;2023-04-15T05:19:48;2.70;;;0.70;;
74656;SDS011;63185;45.642;13.764;2023-04-15T05:22:13;3.38;;;0.70;;
74656;SDS011;63185;45.642;13.764;2023-04-15T05:24:39;4.15;;;0.90;;
74656;SDS011;63185;45.642;13.764;2023-04-15T05:27:05;4.05;;;0.70;;
74656;SDS011;63185;45.642;13.764;2023-04-15T05:29:32;1.13;;;0.50;;
74656;SDS011;63185;45.642;13.764;2023-04-15T05:31:58;3.88;;;0.93;;
74656;SDS011;63185;45.642;13.764;2023-04-15T05:34:24;3.72;;;0.93;;
74656;SDS011;63185;45.642;13.764;2023-04-15T05:36:50;4.03;;;0.82;;
74656;SDS011;63185;45.642;13.764;2023-04-15T05:39:16;6.28;;;0.90;;
74656;SDS011;63185;45.642;13.764;2023-04-15T05:41:42;3.25;;;1.05;;
74656;SDS011;63185;45.642;13.764;2023-04-15T05:44:08;3.88;;;0.82;;
74656;SDS011;63185;45.642;13.764;2023-04-15T05:46:34;3.70;;;0.77;;
74656;SDS011;63185;45.642;13.764;2023-04-15T05:49:00;4.47;;;0.85;;
74656;SDS011;63185;45.642;13.764;2023-04-15T05:51:26;2.15;;;0.75;;
74656;SDS011;63185;45.642;13.764;2023-04-15T05:53:51;3.17;;;0.60;;
74656;SDS011;63185;45.642;13.764;2023-04-15T05:56:17;2.33;;;0.75;;
74656;SDS011;63185;45.642;13.764;2023-04-15T05:58:44;3.67;;;0.88;;
74656;SDS011;63185;45.642;13.764;2023-04-15T06:01:10;4.22;;;0.90;;
74656;SDS011;63185;45.642;13.764;2023-04-15T06:03:36;5.20;;;0.60;;
74656;SDS011;63185;45.642;13.764;2023-04-15T06:06:03;3.35;;;0.70;;
74656;SDS011;63185;45.642;13.764;2023-04-15T06:08:28;4.20;;;0.80;;
74656;SDS011;63185;45.642;13.764;2023-04-15T06:10:54;4.15;;;0.60;;
74656;SDS011;63185;45.642;13.764;2023-04-15T06:13:20;3.78;;;0.68;;
74656;SDS011;63185;45.642;13.764;2023-04-15T06:15:46;5.15;;;0.73;;
74656;SDS011;63185;45.642;13.764;2023-04-15T06:18:11;3.78;;;0.75;;
74656;SDS011;63185;45.642;13.764;2023-04-15T06:20:37;5.28;;;0.85;;
74656;SDS011;63185;45.642;13.764;2023-04-15T06:23:03;3.08;;;0.93;;
74656;SDS011;63185;45.642;13.764;2023-04-15T06:25:29;4.60;;;0.52;;
74656;SDS011;63185;45.642;13.764;2023-04-15T06:27:55;2.88;;;0.73;;
74656;SDS011;63185;45.642;13.764;2023-04-15T06:30:20;4.32;;;0.82;;
74656;SDS011;63185;45.642;13.764;2023-04-15T06:32:46;4.43;;;0.70;;
74656;SDS011;63185;45.642;13.764;2023-04-15T06:35:12;3.20;;;0.50;;
74656;SDS011;63185;45.642;13.764;2023-04-15T06:37:38;3.30;;;0.90;;
74656;SDS011;63185;45.642;13.764;2023-04-15T06:40:04;4.78;;;0.68;;
74656;SDS011;63185;45.642;13.764;2023-04-15T06:42:30;3.40;;;0.70;;
74656;SDS011;63185;45.642;13.764;2023-04-15T06:44:58;2.45;;;0.70;;
74656;SDS011;63185;45.642;13.764;2023-04-15T06:47:23;6.85;;;1.05;;
74656;SDS011;63185;45.642;13.764;2023-04-15T06:49:49;6.22;;;1.05;;
74656;SDS011;63185;45.642;13.764;2023-04-15T06:52:15;4.20;;;1.00;;
74656;SDS011;63185;45.642;13.764;2023-04-15T06:54:41;4.97;;;0.90;;
74656;SDS011;63185;45.642;13.764;2023-04-15T06:57:07;5.20;;;0.77;;
74656;SDS011;63185;45.642;13.764;2023-04-15T06:59:58;8.35;;;1.25;;
74656;SDS011;63185;45.642;13.764;2023-04-15T07:02:25;4.47;;;1.30;;
74656;SDS011;63185;45.642;13.764;2023-04-15T07:04:51;8.75;;;1.65;;
74656;SDS011;63185;45.642;13.764;2023-04-15T07:07:16;8.90;;;1.17;;
74656;SDS011;63185;45.642;13.764;2023-04-15T07:09:42;7.38;;;1.30;;
74656;SDS011;63185;45.642;13.764;2023-04-15T07:12:08;4.10;;;1.05;;
74656;SDS011;63185;45.642;13.764;2023-04-15T07:14:34;3.20;;;1.13;;
74656;SDS011;63185;45.642;13.764;2023-04-15T07:17:00;5.43;;;1.60;;
74656;SDS011;63185;45.642;13.764;2023-04-15T07:19:26;5.35;;;1.30;;
74656;SDS011;63185;45.642;13.764;2023-04-15T07:21:52;5.18;;;1.05;;
74656;SDS011;63185;45.642;13.764;2023-04-15T07:24:18;3.90;;;1.02;;
74656;SDS011;63185;45.642;13.764;2023-04-15T07:26:44;8.10;;;1.23;;
74656;SDS011;63185;45.642;13.764;2023-04-15T07:29:10;6.38;;;1.13;;
74656;SDS011;63185;45.642;13.764;2023-04-15T07:31:36;10.93;;;1.20;;
74656;SDS011;63185;45.642;13.764;2023-04-15T07:34:02;6.40;;;1.23;;
74656;SDS011;63185;45.642;13.764;2023-04-15T07:36:29;5.13;;;1.58;;
74656;SDS011;63185;45.642;13.764;2023-04-15T07:38:55;6.05;;;2.20;;
74656;SDS011;63185;45.642;13.764;2023-04-15T07:41:22;7.93;;;1.48;;
74656;SDS011;63185;45.642;13.764;2023-04-15T07:43:48;5.75;;;1.00;;
74656;SDS011;63185;45.642;13.764;2023-04-15T07:46:14;7.60;;;1.67;;
74656;SDS011;63185;45.642;13.764;2023-04-15T07:48:40;8.98;;;1.40;;
74656;SDS011;63185;45.642;13.764;2023-04-15T07:51:06;5.78;;;1.30;;
74656;SDS011;63185;45.642;13.764;2023-04-15T07:53:32;4.88;;;1.20;;
74656;SDS011;63185;45.642;13.764;2023-04-15T07:55:58;5.47;;;1.17;;
74656;SDS011;63185;45.642;13.764;2023-04-15T07:58:24;5.97;;;1.42;;
74656;SDS011;63185;45.642;13.764;2023-04-15T08:00:50;5.38;;;1.40;;
74656;SDS011;63185;45.642;13.764;2023-04-15T08:03:15;5.53;;;1.20;;
74656;SDS011;63185;45.642;13.764;2023-04-15T08:05:41;8.25;;;1.30;;
74656;SDS011;63185;45.642;13.764;2023-04-15T08:08:07;7.82;;;1.30;;
74656;SDS011;63185;45.642;13.764;2023-04-15T08:10:33;6.68;;;1.25;;
74656;SDS011;63185;45.642;13.764;2023-04-15T08:12:58;8.30;;;1.58;;
74656;SDS011;63185;45.642;13.764;2023-04-15T08:15:25;7.35;;;1.33;;
74656;SDS011;63185;45.642;13.764;2023-04-15T08:17:51;8.35;;;1.77;;
74656;SDS011;63185;45.642;13.764;2023-04-15T08:20:17;7.53;;;1.63;;
74656;SDS011;63185;45.642;13.764;2023-04-15T08:22:43;12.77;;;1.55;;
74656;SDS011;63185;45.642;13.764;2023-04-15T08:25:09;6.57;;;1.23;;
74656;SDS011;63185;45.642;13.764;2023-04-15T08:27:34;6.30;;;1.75;;
74656;SDS011;63185;45.642;13.764;2023-04-15T08:30:00;9.13;;;1.52;;
74656;SDS011;63185;45.642;13.764;2023-04-15T08:32:26;5.10;;;1.10;;
74656;SDS011;63185;45.642;13.764;2023-04-15T08:34:52;7.25;;;1.27;;
74656;SDS011;63185;45.642;13.764;2023-04-15T08:37:18;7.22;;;1.05;;
74656;SDS011;63185;45.642;13.764;2023-04-15T08:39:44;14.05;;;1.20;;
74656;SDS011;63185;45.642;13.764;2023-04-15T08:42:25;5.97;;;1.40;;
74656;SDS011;63185;45.642;13.764;2023-04-15T08:44:55;6.97;;;1.58;;
74656;SDS011;63185;45.642;13.764;2023-04-15T08:47:28;4.88;;;1.13;;
74656;SDS011;63185;45.642;13.764;2023-04-15T08:49:56;9.85;;;1.98;;
74656;SDS011;63185;45.642;13.764;2023-04-15T08:52:25;7.00;;;1.90;;
74656;SDS011;63185;45.642;13.764;2023-04-15T08:54:51;9.02;;;1.50;;
74656;SDS011;63185;45.642;13.764;2023-04-15T08:57:23;5.32;;;1.33;;
74656;SDS011;63185;45.642;13.764;2023-04-15T08:59:56;9.13;;;1.70;;
74656;SDS011;63185;45.642;13.764;2023-04-15T09:02:22;6.75;;;1.42;;
74656;SDS011;63185;45.642;13.764;2023-04-15T09:04:50;10.52;;;1.67;;
74656;SDS011;63185;45.642;13.764;2023-04-15T09:07:16;10.18;;;1.52;;
74656;SDS011;63185;45.642;13.764;2023-04-15T09:09:41;6.00;;;1.67;;
74656;SDS011;63185;45.642;13.764;2023-04-15T09:12:08;10.40;;;1.60;;
74656;SDS011;63185;45.642;13.764;2023-04-15T09:14:34;7.75;;;1.80;;
74656;SDS011;63185;45.642;13.764;2023-04-15T09:17:01;6.63;;;1.90;;
74656;SDS011;63185;45.642;13.764;2023-04-15T09:19:28;9.43;;;1.70;;
74656;SDS011;63185;45.642;13.764;2023-04-15T09:21:55;9.68;;;1.67;;
74656;SDS011;63185;45.642;13.764;2023-04-15T09:24:22;12.38;;;1.77;;
74656;SDS011;63185;45.642;13.764;2023-04-15T09:26:54;6.82;;;1.38;;
74656;SDS011;63185;45.642;13.764;2023-04-15T09:29:25;9.82;;;1.63;;
74656;SDS011;63185;45.642;13.764;2023-04-15T09:31:51;7.95;;;1.23;;
74656;SDS011;63185;45.642;13.764;2023-04-15T09:34:17;4.85;;;0.93;;
74656;SDS011;63185;45.642;13.764;2023-04-15T09:39:13;12.10;;;2.08;;
74656;SDS011;63185;45.642;13.764;2023-04-15T09:41:38;9.85;;;1.58;;
74656;SDS011;63185;45.642;13.764;2023-04-15T09:44:05;8.63;;;1.20;;
74656;SDS011;63185;45.642;13.764;2023-04-15T09:46:44;10.73;;;1.50;;
74656;SDS011;63185;45.642;13.764;2023-04-15T09:49:10;9.52;;;1.25;;
74656;SDS011;63185;45.642;13.764;2023-04-15T09:51:37;10.38;;;1.20;;
74656;SDS011;63185;45.642;13.764;2023-04-15T09:54:03;10.48;;;1.38;;
74656;SDS011;63185;45.642;13.764;2023-04-15T09:56:35;9.75;;;1.30;;
74656;SDS011;63185;45.642;13.764;2023-04-15T09:59:07;10.95;;;1.60;;
74656;SDS011;63185;45.642;13.764;2023-04-15T10:01:33;9.15;;;1.50;;
74656;SDS011;63185;45.642;13.764;2023-04-15T10:04:01;7.40;;;1.20;;
74656;SDS011;63185;45.642;13.764;2023-04-15T10:06:28;8.77;;;1.33;;
74656;SDS011;63185;45.642;13.764;2023-04-15T10:08:56;7.38;;;1.40;;
74656;SDS011;63185;45.642;13.764;2023-04-15T10:11:23;10.57;;;1.23;;
74656;SDS011;63185;45.642;13.764;2023-04-15T10:13:51;3.92;;;0.77;;
74656;SDS011;63185;45.642;13.764;2023-04-15T10:16:19;5.38;;;1.27;;
74656;SDS011;63185;45.642;13.764;2023-04-15T10:18:46;7.68;;;1.50;;
74656;SDS011;63185;45.642;13.764;2023-04-15T10:21:15;12.30;;;1.67;;
74656;SDS011;63185;45.642;13.764;2023-04-15T10:23:44;4.15;;;1.45;;
74656;SDS011;63185;45.642;13.764;2023-04-15T10:26:10;6.03;;;1.27;;
74656;SDS011;63185;45.642;13.764;2023-04-15T10:28:38;15.55;;;1.77;;
74656;SDS011;63185;45.642;13.764;2023-04-15T10:31:04;6.03;;;1.63;;
74656;SDS011;63185;45.642;13.764;2023-04-15T10:33:31;9.48;;;1.60;;
74656;SDS011;63185;45.642;13.764;2023-04-15T10:35:59;9.43;;;1.90;;
74656;SDS011;63185;45.642;13.764;2023-04-15T10:38:41;17.55;;;2.08;;
74656;SDS011;63185;45.642;13.764;2023-04-15T10:43:38;12.80;;;2.03;;
74656;SDS011;63185;45.642;13.764;2023-04-15T10:46:05;11.30;;;1.50;;
74656;SDS011;63185;45.642;13.764;2023-04-15T10:48:31;10.07;;;1.55;;
74656;SDS011;63185;45.642;13.764;2023-04-15T10:50:59;10.02;;;1.88;;
74656;SDS011;63185;45.642;13.764;2023-04-15T10:53:29;8.80;;;1.30;;
74656;SDS011;63185;45.642;13.764;2023-04-15T10:55:56;8.82;;;1.25;;
74656;SDS011;63185;45.642;13.764;2023-04-15T10:58:22;11.90;;;1.45;;
74656;SDS011;63185;45.642;13.764;2023-04-15T11:00:50;11.23;;;1.27;;
74656;SDS011;63185;45.642;13.764;2023-04-15T11:03:30;8.85;;;2.00;;
74656;SDS011;63185;45.642;13.764;2023-04-15T11:06:03;9.18;;;1.35;;
74656;SDS011;63185;45.642;13.764;2023-04-15T11:12:03;6.07;;;0.93;;
74656;SDS011;63185;45.642;13.764;2023-04-15T11:14:31;6.60;;;1.38;;
74656;SDS011;63185;45.642;13.764;2023-04-15T11:16:58;5.03;;;1.20;;
74656;SDS011;63185;45.642;13.764;2023-04-15T11:19:24;15.05;;;1.33;;
74656;SDS011;63185;45.642;13.764;2023-04-15T11:21:50;12.00;;;1.30;;
74656;SDS011;63185;45.642;13.764;2023-04-15T11:24:22;8.77;;;1.25;;
74656;SDS011;63185;45.642;13.764;2023-04-15T11:26:56;9.15;;;1.50;;
74656;SDS011;63185;45.642;13.764;2023-04-15T11:29:27;9.40;;;1.17;;
74656;SDS011;63185;45.642;13.764;2023-04-15T11:32:03;10.38;;;1.05;;
74656;SDS011;63185;45.642;13.764;2023-04-15T11:34:31;10.35;;;1.42;;
74656;SDS011;63185;45.642;13.764;2023-04-15T11:36:57;7.13;;;1.08;;
74656;SDS011;63185;45.642;13.764;2023-04-15T11:39:22;7.80;;;1.27;;
74656;SDS011;63185;45.642;13.764;2023-04-15T11:41:48;5.85;;;0.75;;
74656;SDS011;63185;45.642;13.764;2023-04-15T11:44:17;9.85;;;1.05;;
74656;SDS011;63185;45.642;13.764;2023-04-15T11:46:43;8.90;;;0.98;;
74656;SDS011;63185;45.642;13.764;2023-04-15T11:49:08;10.88;;;1.58;;
74656;SDS011;63185;45.642;13.764;2023-04-15T11:51:35;5.03;;;0.75;;
74656;SDS011;63185;45.642;13.764;2023-04-15T11:54:01;7.28;;;0.90;;
74656;SDS011;63185;45.642;13.764;2023-04-15T11:56:27;6.80;;;1.27;;
74656;SDS011;63185;45.642;13.764;2023-04-15T11:58:53;6.15;;;1.10;;
74656;SDS011;63185;45.642;13.764;2023-04-15T12:01:29;7.03;;;1.52;;
74656;SDS011;63185;45.642;13.764;2023-04-15T12:03:59;4.90;;;0.60;;
74656;SDS011;63185;45.642;13.764;2023-04-15T12:06:30;4.25;;;0.70;;
74656;SDS011;63185;45.642;13.764;2023-04-15T12:09:03;3.38;;;0.68;;
74656;SDS011;63185;45.642;13.764;2023-04-15T12:11:42;4.65;;;0.70;;
74656;SDS011;63185;45.642;13.764;2023-04-15T12:14:33;9.15;;;1.10;;
74656;SDS011;63185;45.642;13.764;2023-04-15T12:17:04;7.00;;;0.90;;
74656;SDS011;63185;45.642;13.764;2023-04-15T12:19:34;6.25;;;0.82;;
74656;SDS011;63185;45.642;13.764;2023-04-15T12:22:03;3.60;;;0.90;;
74656;SDS011;63185;45.642;13.764;2023-04-15T12:24:33;6.25;;;0.85;;
74656;SDS011;63185;45.642;13.764;2023-04-15T12:27:07;7.68;;;1.20;;
74656;SDS011;63185;45.642;13.764;2023-04-15T12:29:35;8.57;;;1.40;;
74656;SDS011;63185;45.642;13.764;2023-04-15T12:32:04;12.07;;;1.17;;
74656;SDS011;63185;45.642;13.764;2023-04-15T12:34:40;9.38;;;1.05;;
74656;SDS011;63185;45.642;13.764;2023-04-15T12:37:07;5.32;;;0.88;;
74656;SDS011;63185;45.642;13.764;2023-04-15T12:39:35;7.93;;;0.98;;
74656;SDS011;63185;45.642;13.764;2023-04-15T12:42:05;7.85;;;1.00;;
74656;SDS011;63185;45.642;13.764;2023-04-15T12:44:32;7.45;;;1.10;;
74656;SDS011;63185;45.642;13.764;2023-04-15T12:46:58;9.50;;;0.90;;
74656;SDS011;63185;45.642;13.764;2023-04-15T12:49:24;9.18;;;1.27;;
74656;SDS011;63185;45.642;13.764;2023-04-15T12:51:54;9.00;;;1.27;;
74656;SDS011;63185;45.642;13.764;2023-04-15T12:54:21;6.75;;;1.48;;
74656;SDS011;63185;45.642;13.764;2023-04-15T12:56:47;6.40;;;1.40;;
74656;SDS011;63185;45.642;13.764;2023-04-15T12:59:14;10.63;;;1.35;;
74656;SDS011;63185;45.642;13.764;2023-04-15T13:01:44;8.05;;;1.00;;
74656;SDS011;63185;45.642;13.764;2023-04-15T13:04:11;6.90;;;1.08;;
74656;SDS011;63185;45.642;13.764;2023-04-15T13:06:37;9.63;;;1.27;;
74656;SDS011;63185;45.642;13.764;2023-04-15T13:09:03;10.30;;;1.75;;
74656;SDS011;63185;45.642;13.764;2023-04-15T13:11:29;5.75;;;1.10;;
74656;SDS011;63185;45.642;13.764;2023-04-15T13:13:59;6.65;;;1.00;;
74656;SDS011;63185;45.642;13.764;2023-04-15T13:16:26;8.07;;;1.17;;
74656;SDS011;63185;45.642;13.764;2023-04-15T13:18:52;10.38;;;1.25;;
74656;SDS011;63185;45.642;13.764;2023-04-15T13:21:18;8.63;;;1.10;;
74656;SDS011;63185;45.642;13.764;2023-04-15T13:23:44;10.55;;;1.30;;
74656;SDS011;63185;45.642;13.764;2023-04-15T13:26:09;8.88;;;1.25;;
74656;SDS011;63185;45.642;13.764;2023-04-15T13:28:35;7.10;;;1.10;;
74656;SDS011;63185;45.642;13.764;2023-04-15T13:31:01;6.93;;;0.90;;
74656;SDS011;63185;45.642;13.764;2023-04-15T13:33:27;12.00;;;1.30;;
74656;SDS011;63185;45.642;13.764;2023-04-15T13:35:53;9.93;;;1.27;;
74656;SDS011;63185;45.642;13.764;2023-04-15T13:38:18;6.40;;;1.02;;
74656;SDS011;63185;45.642;13.764;2023-04-15T13:40:44;9.68;;;0.93;;
74656;SDS011;63185;45.642;13.764;2023-04-15T13:43:10;5.53;;;0.90;;
74656;SDS011;63185;45.642;13.764;2023-04-15T13:45:36;8.90;;;1.25;;
74656;SDS011;63185;45.642;13.764;2023-04-15T13:48:02;7.55;;;0.98;;
74656;SDS011;63185;45.642;13.764;2023-04-15T13:50:28;7.07;;;1.00;;
74656;SDS011;63185;45.642;13.764;2023-04-15T13:52:54;6.85;;;0.90;;
74656;SDS011;63185;45.642;13.764;2023-04-15T13:55:20;5.63;;;0.90;;
74656;SDS011;63185;45.642;13.764;2023-04-15T13:57:46;10.95;;;1.02;;
74656;SDS011;63185;45.642;13.764;2023-04-15T14:00:12;5.90;;;0.88;;
74656;SDS011;63185;45.642;13.764;2023-04-15T14:02:38;5.22;;;0.80;;
74656;SDS011;63185;45.642;13.764;2023-04-15T14:05:05;8.00;;;1.00;;
74656;SDS011;63185;45.642;13.764;2023-04-15T14:07:31;7.53;;;1.02;;
74656;SDS011;63185;45.642;13.764;2023-04-15T14:09:56;6.30;;;0.90;;
74656;SDS011;63185;45.642;13.764;2023-04-15T14:12:22;9.15;;;1.17;;
74656;SDS011;63185;45.642;13.764;2023-04-15T14:14:48;7.40;;;0.90;;
74656;SDS011;63185;45.642;13.764;2023-04-15T14:17:14;6.30;;;1.13;;
74656;SDS011;63185;45.642;13.764;2023-04-15T14:19:39;9.38;;;1.00;;
74656;SDS011;63185;45.642;13.764;2023-04-15T14:22:05;8.60;;;1.48;;
74656;SDS011;63185;45.642;13.764;2023-04-15T14:24:31;5.47;;;1.25;;
74656;SDS011;63185;45.642;13.764;2023-04-15T14:26:57;6.40;;;1.00;;
74656;SDS011;63185;45.642;13.764;2023-04-15T14:29:23;7.00;;;1.17;;
74656;SDS011;63185;45.642;13.764;2023-04-15T14:31:49;7.47;;;0.90;;
74656;SDS011;63185;45.642;13.764;2023-04-15T14:34:15;9.30;;;1.65;;
74656;SDS011;63185;45.642;13.764;2023-04-15T14:36:41;6.75;;;1.42;;
74656;SDS011;63185;45.642;13.764;2023-04-15T14:39:07;5.85;;;1.35;;